createdAt,value
2023-03-28T00:01:34.411Z,50.8
2023-03-28T00:07:26.094Z,50.8
2023-03-28T00:12:46.964Z,50.8
2023-03-28T00:18:23.335Z,50.7
2023-03-28T00:24:14.263Z,50.6
2023-03-28T00:29:34.192Z,50.6
2023-03-28T00:35:10.417Z,50.5
2023-03-28T00:41:02.296Z,50.4
2023-03-28T00:46:55.592Z,50.4
2023-03-28T00:52:32.208Z,50.3
2023-03-28T00:58:23.395Z,50.3
2023-03-28T01:04:00.026Z,50.3
2023-03-28T01:09:36.342Z,50.2
2023-03-28T01:15:13.252Z,50.1
2023-03-28T01:20:35.883Z,50.1
2023-03-28T01:26:08.481Z,50.1
2023-03-28T01:30:58.211Z,50
2023-03-28T01:36:34.264Z,49.9
2023-03-28T01:42:11.574Z,49.9
2023-03-28T01:47:48.573Z,49.8
2023-03-28T01:53:24.392Z,49.8
2023-03-28T01:59:07.807Z,49.7
2023-03-28T02:04:57.089Z,49.7
2023-03-28T02:10:35.833Z,49.6
2023-03-28T02:16:26.946Z,49.6
2023-03-28T02:22:18.555Z,49.5
2023-03-28T02:27:55.014Z,49.4
2023-03-28T02:33:46.857Z,49.4
2023-03-28T02:39:38.468Z,49.3
2023-03-28T02:45:32.714Z,49.3
2023-03-28T02:51:18.169Z,49.2
2023-03-28T02:56:54.344Z,49.1
2023-03-28T03:02:46.052Z,49.1
2023-03-28T03:08:23.556Z,49.1
2023-03-28T03:13:59.910Z,49
2023-03-28T03:19:36.468Z,48.9
2023-03-28T03:25:14.295Z,48.9
2023-03-28T03:30:44.411Z,48.8
2023-03-28T03:36:23.878Z,48.8
2023-03-28T03:42:00.171Z,48.8
2023-03-28T03:47:21.875Z,48.7
2023-03-28T03:53:03.887Z,48.7
2023-03-28T03:58:24.567Z,48.6
2023-03-28T04:04:14.692Z,48.6
2023-03-28T04:09:50.287Z,48.5
2023-03-28T04:15:26.445Z,48.5
2023-03-28T04:21:14.469Z,48.4
2023-03-28T04:27:15.401Z,48.4
2023-03-28T04:32:52.366Z,48.3
2023-03-28T04:38:20.321Z,48.3
2023-03-28T04:43:27.011Z,48.2
2023-03-28T04:48:48.347Z,48.1
2023-03-28T04:54:40.204Z,48.1
2023-03-28T05:00:32.146Z,48.1
2023-03-28T05:06:09.837Z,48
2023-03-28T05:12:01.583Z,47.9
2023-03-28T05:17:57.316Z,47.9
2023-03-28T05:23:51.373Z,47.9
2023-03-28T05:29:43.005Z,47.8
2023-03-28T05:35:35.182Z,47.8
2023-03-28T05:41:27.013Z,47.7
2023-03-28T05:47:17.519Z,47.6
2023-03-28T05:53:09.356Z,47.6
2023-03-28T05:58:49.567Z,47.5
2023-03-28T06:04:42.803Z,47.4
2023-03-28T06:10:47.897Z,47.4
2023-03-28T06:16:47.859Z,47.4
2023-03-28T06:22:56.558Z,47.3
2023-03-28T06:28:32.635Z,47.3
2023-03-28T06:34:25.656Z,47.3
2023-03-28T06:40:17.948Z,47.2
2023-03-28T06:46:09.734Z,47.1
2023-03-28T06:51:46.478Z,47.1
2023-03-28T06:57:22.304Z,47
2023-03-28T07:03:14.480Z,47
2023-03-28T07:09:09.159Z,46.9
2023-03-28T07:14:45.080Z,46.4
2023-03-28T07:20:38.780Z,43.5
2023-03-28T07:26:39.154Z,41.8
2023-03-28T07:33:14.487Z,41.4
2023-03-28T07:39:12.763Z,41.3
2023-03-28T07:44:32.800Z,40.9
2023-03-28T07:50:09.290Z,40.8
2023-03-28T07:56:11.416Z,40.8
2023-03-28T08:02:03.255Z,40.7
2023-03-28T08:08:09.923Z,40.6
2023-03-28T08:14:01.650Z,40.6
2023-03-28T08:20:05.630Z,40.6
2023-03-28T08:25:51.868Z,40.5
2023-03-28T08:31:43.428Z,40.5
2023-03-28T08:37:35.654Z,40.4
2023-03-28T08:43:30.082Z,40.4
2023-03-28T08:49:06.556Z,40.4
2023-03-28T08:55:00.377Z,40.4
2023-03-28T09:00:53.478Z,40.3
2023-03-28T09:07:04.154Z,40.3
2023-03-28T09:12:56.480Z,40.2
2023-03-28T09:18:32.564Z,40.2
2023-03-28T09:24:46.986Z,40.1
2023-03-28T09:30:39.449Z,39.8
2023-03-28T09:36:17.459Z,39.6
2023-03-28T09:42:21.149Z,39.6
2023-03-28T09:48:23.516Z,39
2023-03-28T09:54:10.231Z,38.8
2023-03-28T10:00:11.394Z,38.7
2023-03-28T10:06:03.869Z,38.6
2023-03-28T10:11:55.146Z,38.6
2023-03-28T10:17:46.728Z,38.6
2023-03-28T10:23:37.367Z,38.6
2023-03-28T10:29:28.287Z,38.5
2023-03-28T10:35:05.085Z,38.4
2023-03-28T10:40:58.635Z,38.4
2023-03-28T10:46:50.294Z,38.4
2023-03-28T10:52:41.720Z,38.4
2023-03-28T10:58:33.866Z,38.3
2023-03-28T11:04:26.416Z,38.2
2023-03-28T11:10:36.925Z,38.1
2023-03-28T11:16:44.463Z,37.8
2023-03-28T11:22:20.736Z,37.8
2023-03-28T11:28:37.750Z,37.7
2023-03-28T11:34:29.238Z,37.7
2023-03-28T11:40:23.018Z,37.6
2023-03-28T11:46:28.109Z,37.6
2023-03-28T11:52:19.394Z,37.3
2023-03-28T11:58:12.289Z,36.6
2023-03-28T12:04:13.493Z,36.7
2023-03-28T12:10:21.982Z,37.1
2023-03-28T12:16:24.352Z,37.6
2023-03-28T12:22:18.956Z,38.1
2023-03-28T12:28:10.381Z,38.6
2023-03-28T12:33:47.579Z,39.1
2023-03-28T12:39:39.116Z,39.3
2023-03-28T12:45:16.209Z,39.4
2023-03-28T12:51:08.376Z,39.6
2023-03-28T12:57:00.212Z,39.9
2023-03-28T13:02:53.809Z,40.3
2023-03-28T13:08:46.261Z,40.5
2023-03-28T13:14:38.357Z,40.6
2023-03-28T13:20:31.046Z,40.8
2023-03-28T13:25:53.023Z,40.8
2023-03-28T13:31:44.795Z,40.8
2023-03-28T13:37:39.633Z,40.8
2023-03-28T13:43:16.040Z,40.8
2023-03-28T13:49:02.612Z,40.8
2023-03-28T13:54:51.882Z,40.8
2023-03-28T14:00:43.627Z,40.8
2023-03-28T14:06:37.789Z,40.9
2023-03-28T14:12:29.163Z,40.9
2023-03-28T14:18:23.219Z,40.9
2023-03-28T14:24:23.858Z,40.9
2023-03-28T14:30:03.235Z,40.8
2023-03-28T14:36:05.121Z,40.9
2023-03-28T14:41:56.385Z,40.8
2023-03-28T14:47:47.855Z,40.8
2023-03-28T14:53:41.966Z,40.8
2023-03-28T14:59:33.508Z,40.8
2023-03-28T15:05:26.195Z,40.8
2023-03-28T15:11:04.096Z,40.8
2023-03-28T15:16:58.214Z,40.7
2023-03-28T15:22:49.636Z,40.7
2023-03-28T15:28:41.485Z,40.7
2023-03-28T15:34:20.490Z,40.7
2023-03-28T15:40:13.964Z,40.6
2023-03-28T15:46:04.826Z,40.6
2023-03-28T15:51:58.590Z,40.6
2023-03-28T15:58:07.048Z,40.6
2023-03-28T16:03:58.784Z,40.6
2023-03-28T16:09:54.279Z,40.6
2023-03-28T16:15:45.262Z,40.5
2023-03-28T16:21:22.303Z,40.5
2023-03-28T16:26:58.439Z,40.4
2023-03-28T16:32:35.598Z,40.4
2023-03-28T16:38:27.904Z,40.4
2023-03-28T16:44:19.242Z,40.4
2023-03-28T16:50:10.469Z,40.4
2023-03-28T16:56:01.747Z,40.3
2023-03-28T17:01:23.113Z,40.3
2023-03-28T17:07:18.238Z,40.3
2023-03-28T17:13:10.156Z,40.3
2023-03-28T17:19:02.351Z,40.3
2023-03-28T17:24:22.831Z,40.2
2023-03-28T17:30:31.197Z,40.2
2023-03-28T17:36:25.151Z,40.1
2023-03-28T17:42:17.031Z,40.1
2023-03-28T17:48:09.961Z,40.1
2023-03-28T17:53:49.337Z,40.1
2023-03-28T17:59:41.643Z,40.1
2023-03-28T18:05:19.576Z,40.1
2023-03-28T18:11:14.130Z,40
2023-03-28T18:16:51.048Z,40
2023-03-28T18:22:27.420Z,39.9
2023-03-28T18:28:21.230Z,39.9
2023-03-28T18:34:02.390Z,39.9
2023-03-28T18:39:41.382Z,39.9
2023-03-28T18:45:18.558Z,39.9
2023-03-28T18:50:55.804Z,39.8
2023-03-28T18:56:33.215Z,39.8
2023-03-28T19:02:11.012Z,39.8
2023-03-28T19:07:49.552Z,39.8
2023-03-28T19:13:11.838Z,39.7
2023-03-28T19:18:51.644Z,39.7
2023-03-28T19:24:29.281Z,39.7
2023-03-28T19:30:07.716Z,39.6
2023-03-28T19:36:01.856Z,39.6
2023-03-28T19:41:41.473Z,39.6
2023-03-28T19:47:22.794Z,39.6
2023-03-28T19:53:15.282Z,39.5
2023-03-28T19:59:08.455Z,39.5
2023-03-28T20:04:45.740Z,39.5
2023-03-28T20:10:09.244Z,39.4
2023-03-28T20:15:47.524Z,39.4
2023-03-28T20:21:39.208Z,39.4
2023-03-28T20:27:15.879Z,39.4
2023-03-28T20:33:07.572Z,39.4
2023-03-28T20:38:59.517Z,39.4
2023-03-28T20:44:37.525Z,39.3
2023-03-28T20:50:29.779Z,39.3
2023-03-28T20:56:25.045Z,39.3
2023-03-28T21:02:17.419Z,39.3
2023-03-28T21:08:08.817Z,39.2
2023-03-28T21:14:00.224Z,39.2
2023-03-28T21:19:36.545Z,39.2
2023-03-28T21:25:27.787Z,39.2
2023-03-28T21:30:48.528Z,39.1
2023-03-28T21:36:11.051Z,39.1
2023-03-28T21:41:47.100Z,39.1
2023-03-28T21:47:07.009Z,39.1
2023-03-28T21:52:28.610Z,39.1
2023-03-28T21:58:19.885Z,39
2023-03-28T22:03:58.865Z,39
2023-03-28T22:09:13.069Z,38.9
2023-03-28T22:14:34.643Z,38.9
2023-03-28T22:19:55.270Z,38.9
2023-03-28T22:25:15.315Z,38.9
2023-03-28T22:30:35.854Z,38.9
2023-03-28T22:36:11.809Z,38.9
2023-03-28T22:41:47.231Z,38.8
2023-03-28T22:47:08.569Z,38.8
2023-03-28T22:52:45.468Z,38.8
2023-03-28T22:58:22.160Z,38.8
2023-03-28T23:03:58.662Z,38.8
2023-03-28T23:09:50.298Z,38.8
2023-03-28T23:15:26.371Z,38.7
2023-03-28T23:21:19.303Z,38.7
2023-03-28T23:26:55.299Z,38.6
2023-03-28T23:32:49.003Z,38.6
2023-03-28T23:38:40.959Z,38.6
2023-03-28T23:44:16.963Z,38.6
2023-03-28T23:49:37.788Z,38.6
2023-03-28T23:55:14.085Z,38.5
